Terminal Aerodrome Forecast
Issued by NWS

Home | Current Version | Previous Version | Text Only | Print | Product List | Glossary On
Versions: 1 2 3 4 5 6 7 8 9 10 11 12 13
575
FTUS46 KSEW 291735
TAFOLM
TAF
KOLM 291735Z 2918/3018 35006KT P6SM BKN025 OVC035
     FM292100 35006KT P6SM VCSH SCT025 BKN035
     FM300300 VRB03KT P6SM SCT030 BKN050
     FM301000 VRB04KT P6SM BKN020=

USA.gov is the U.S. government's official web portal to all federal, state and local government web resources and services.